Muleshoe, TX

6:06 PM CDT en Octubre 24, 2014 (GMT -0500)
WT_Meso Muleshoe 2S | Change Station
CLOSE
Current Station
Estación meteorológica personal
Location: Muleshoe, TX
Altura: 3806 ft
Estaciones meteorológicas cercanas

Alt 3806 ft 34.21 °N, 102.74 °W | Updated 41 minutes ago

Despejado
Despejado
84 ° F
Sensación térmica 81 ° F
N
11
Viento Variable Viento desde OSO
Gusts 15.0 mph

Hoy
Alta -- | Baja -- ° F
--% Posibilidad de precipitaciones
Ayer
Alta -- | Baja -- ° F
Precip. -- pul
8:03 AM 7:05 PM
Luna nueva, 1% visible
Presión 30.17 pul
Visibilidad 10.0 Millas
Nubes Despejado
Índice de calor 81 ° F
Punto de rocío 34 ° F
Humedad 17%
Precipitaciones -999.00 pul
Espesor de la nieve No disponible.
UV 1 de una escala de 12
Polen 6.10 de una escala de 12
Calidad del aire No disponible.
Flu Activity Sporadic
METAR KCVN 242255Z AUTO 25011KT 10SM CLR 28/03 A3017 RMK AO1

More Conditions Fewer Conditions

Presión 30.17 pul
Visibilidad 10.0 Millas
Nubes Despejado
Índice de calor 81 ° F
Punto de rocío 34 ° F
Humedad 17%
Precipitaciones -999.00 pul
Espesor de la nieve No disponible.
UV 1 de una escala de 12
Polen 6.10 de una escala de 12
Calidad del aire No disponible.
Flu Activity Sporadic
METAR KCVN 242255Z AUTO 25011KT 10SM CLR 28/03 A3017 RMK AO1

More Conditions Fewer Conditions

10-Day Weather Forecast

Almanac

Astronomía

Oct. 24, 2014 Salida Puesta
Hora real 8:03 AM CDT 7:05 PM CDT
Crepúsculo civil 7:38 AM CDT 7:31 PM CDT
Crepúsculo náutico 7:08 AM CDT 8:00 PM CDT
Crepúsculo astronómico 6:39 AM CDT 8:29 PM CDT
Luna 8:43 AM CDT 7:49 PM CDT
Horas de luz 11h 53m
Horas de luz
11h 02m
Tomorrow will be 1m 57s shorter.
Luna nueva, 1% of the Moon is Illuminated
Hoy
Luna nueva
Oct 30
Cuarto creciente
Nov 6
Luna llena
Nov 14
Cuarto menguante
Nov 22
Nueva

Extremos de hoy

Máximos del estado Bajos del estado

Community

WunderPhotos

Upload Photos

1,764,705 ¡fotos cargadas!

Nearby

Grosos de nieve

Estación Profundido Altura
No tenemos constancia de nieve nueva.

Actividad de terremotos

Ciudad Distance Mag. Tiempo y dato
No hay informes recientes de la actividad sísmica.
Magnitud mínima muestra es 2,5.

Temperaturas de aguas costeras

Lugar Temperatura
Sin partes meteorológicos de las estaciones

Estaciones meteorológicas cercanas